Fergus Falls, MN

2:20 PM CST on February 22, 2017 (GMT -0600)
Northwest Fergus Falls | | Change Station

Elev 1234 ft 46.29 °N, 96.09 °W | Updated 24 seconds ago

Overcast
Overcast
36.3 °F
Feels Like 36 °F
N
1.7
Wind Variable Wind from ENE
Gusts 3.4 mph

Today
High -- | Low -- °F
--% Chance of Precip.
Yesterday
High -- | Low -- °F
Precip. -- in
Pressure 29.68 in
Visibility 10.0 miles
Clouds Mostly Cloudy 400 ft
Windchill 36 °F
Dew Point Not available.
Humidity Not available.
Rainfall 0.36 in
Snow Depth Not available.
7:15 AM 6:00 PM
Waning Crescent, 15% visible
METAR KFFM 222014Z AUTO 36009G19KT 10SM BKN004 03/03 A2968 RMK AO2
Pressure 29.68 in
Visibility 10.0 miles
Clouds Mostly Cloudy 400 ft
Windchill 36 °F
Dew Point Not available.
Humidity Not available.
Rainfall 0.36 in
Snow Depth Not available.
7:15 AM 6:00 PM
Waning Crescent, 15% visible
METAR KFFM 222014Z AUTO 36009G19KT 10SM BKN004 03/03 A2968 RMK AO2

Get Your Daily Forecast Email!

Thanks for signing up!

Be on the lookout for a verification email in your inbox.

You'll start receiving the daily forecast at 8 AM.

×

10-Day Weather Forecast

Almanac

Astronomy

Feb. 22, 2017 Rise Set
Actual Time
Civil Twilight
Nautical Twilight
Astronomical Twilight
Moon
Length of Visible Light
Length of Day
Tomorrow will be .
, % of the Moon is Illuminated

Today's Extremes

State Highs State Lows

Community

WunderPhotos

Upload Photos

1,962,540 photos uploaded!

WunderBlog® & News

Nearby

Air Quality

  Air Quality AQ Index Pollutant
Not available.

Snow Depth

Station Depth Elevation

Earthquake Activity

City Distance Mag. Time & Date
Minimum magnitude displayed is 2.5.

Coastal Water Temperatures

Place Temperature

Stations

Nearby Weather Stations

Station Location Temp. Windchill Dew Point Humidity Wind Precip. Elev Updated Type
                   

Watches & Warnings

There are currently no watches in effect.